Time;durP1;ratioP1;P1;durP2;ratioP2;P2;SDS_P1;SDS_P2;PMS_P1;PMS_P2;Temp;Humidity;BMP_temperature;BMP_pressure;BME280_temperature;BME280_humidity;BME280_pressure;Samples;Min_cycle;Max_cycle;Signal;HPM_P1;HPM_P2
2022/11/01 00:01:39;;;;;;;12.15;5.72;;;;;;;14.55;90.42;100769.09;5117622;28;20038;-50
2022/11/01 00:04:04;;;;;;;11.77;5.63;;;;;;;14.59;90.21;100767.03;5113542;28;20016;-52
2022/11/01 00:06:30;;;;;;;11.27;5.93;;;;;;;14.61;90.37;100765.03;5117760;28;20032;-49
2022/11/01 00:08:55;;;;;;;13.40;5.80;;;;;;;14.67;90.21;100764.47;5117494;28;20042;-50
2022/11/01 00:11:20;;;;;;;17.13;5.30;;;;;;;14.72;89.87;100755.97;5117578;28;20016;-49
2022/11/01 00:13:48;;;;;;;13.93;5.28;;;;;;;14.76;89.51;100765.41;5118004;28;20000;-50
2022/11/01 00:16:14;;;;;;;17.20;5.30;;;;;;;14.81;89.59;100760.47;5117411;28;20008;-50
2022/11/01 00:18:40;;;;;;;13.15;5.18;;;;;;;14.88;89.14;100758.88;5117543;28;20058;-50
2022/11/01 00:21:05;;;;;;;11.15;5.78;;;;;;;14.93;89.05;100758.44;5117745;28;20040;-49
2022/11/01 00:23:31;;;;;;;12.05;5.03;;;;;;;14.99;88.95;100755.19;5118030;28;20024;-49
2022/11/01 00:26:00;;;;;;;11.35;4.75;;;;;;;15.02;89.01;100760.25;5117283;28;20076;-52
2022/11/01 00:28:26;;;;;;;11.25;5.00;;;;;;;15.04;88.73;100749.34;5116980;28;20057;-51
2022/11/01 00:30:53;;;;;;;12.43;5.47;;;;;;;15.10;88.71;100749.59;5117715;28;20022;-51
2022/11/01 00:33:19;;;;;;;9.00;4.88;;;;;;;15.12;88.82;100752.13;5117631;28;20008;-48
2022/11/01 00:35:45;;;;;;;8.93;4.85;;;;;;;15.13;88.73;100743.13;5119097;28;20016;-52
2022/11/01 00:38:11;;;;;;;7.78;4.63;;;;;;;15.13;88.83;100743.97;5121562;28;20020;-50
2022/11/01 00:40:36;;;;;;;8.82;4.70;;;;;;;15.15;88.72;100752.69;5121412;28;20045;-48
2022/11/01 00:43:02;;;;;;;14.35;5.07;;;;;;;15.20;88.80;100754.06;5112077;28;20036;-49
2022/11/01 00:45:27;;;;;;;10.98;4.40;;;;;;;15.23;88.91;100741.22;5118524;28;20012;-51
2022/11/01 00:47:52;;;;;;;10.43;4.20;;;;;;;15.27;88.94;100747.13;5114574;28;20054;-50
2022/11/01 00:50:17;;;;;;;9.70;4.65;;;;;;;15.26;89.07;100745.44;5120802;28;20038;-52
2022/11/01 00:52:43;;;;;;;10.45;4.72;;;;;;;15.27;89.15;100739.94;5121244;28;20031;-50
2022/11/01 00:55:08;;;;;;;11.65;4.50;;;;;;;15.34;89.04;100740.19;5120071;28;20016;-52
2022/11/01 00:57:33;;;;;;;14.55;4.85;;;;;;;15.38;88.79;100738.88;5121342;28;20024;-52
2022/11/01 00:59:58;;;;;;;11.13;4.17;;;;;;;15.40;88.70;100733.38;5120815;28;20039;-52
2022/11/01 01:02:24;;;;;;;13.43;4.60;;;;;;;15.43;88.96;100731.25;5120892;28;20312;-50
2022/11/01 01:04:49;;;;;;;12.75;4.82;;;;;;;15.46;88.79;100733.59;5121001;28;20293;-54
2022/11/01 01:07:15;;;;;;;9.60;4.18;;;;;;;15.48;88.58;100733.47;5120640;28;20051;-53
2022/11/01 01:09:41;;;;;;;10.52;4.60;;;;;;;15.50;88.65;100729.66;5120716;28;20023;-53
2022/11/01 01:12:06;;;;;;;12.32;4.43;;;;;;;15.54;88.51;100723.00;5120551;28;20024;-52
2022/11/01 01:14:31;;;;;;;11.05;5.25;;;;;;;15.60;88.18;100715.34;5120332;28;20023;-53
2022/11/01 01:16:57;;;;;;;14.45;5.05;;;;;;;15.60;88.50;100721.53;5120796;28;20040;-50
2022/11/01 01:19:22;;;;;;;11.70;4.30;;;;;;;15.61;88.59;100727.75;5120440;28;20040;-51
2022/11/01 01:21:47;;;;;;;8.40;4.55;;;;;;;15.60;88.88;100734.91;5121167;28;20274;-50
2022/11/01 01:24:13;;;;;;;11.40;4.78;;;;;;;15.59;88.99;100727.88;5120268;28;20017;-52
2022/11/01 01:26:38;;;;;;;10.68;4.53;;;;;;;15.60;89.13;100729.56;5120504;28;20039;-53
2022/11/01 01:29:03;;;;;;;7.72;4.78;;;;;;;15.60;89.29;100731.41;5120792;28;20020;-50
2022/11/01 01:31:29;;;;;;;16.20;5.90;;;;;;;15.61;89.45;100739.28;5120409;28;20039;-50
2022/11/01 01:33:56;;;;;;;14.43;5.70;;;;;;;15.57;89.51;100724.53;5115067;28;20301;-49
2022/11/01 01:36:21;;;;;;;13.05;5.03;;;;;;;15.58;89.74;100733.41;5120091;28;20075;-50
2022/11/01 01:38:50;;;;;;;11.95;4.90;;;;;;;15.55;90.00;100739.88;5120104;28;20042;-52
2022/11/01 01:44:00;;;;;;;7.55;4.47;;;;;;;15.52;90.13;100730.34;5119378;28;20088;-51
2022/11/01 01:46:25;;;;;;;12.27;4.90;;;;;;;15.57;90.08;100721.00;5113592;28;20020;-49
2022/11/01 01:48:57;;;;;;;11.97;4.70;;;;;;;15.59;90.33;100722.53;5140942;23;20085;-81
2022/11/01 01:51:25;;;;;;;11.38;4.93;;;;;;;15.59;90.32;100714.50;5117983;28;20261;-81
2022/11/01 01:53:53;;;;;;;8.35;4.80;;;;;;;15.59;90.45;100709.16;5114961;28;20031;-80
2022/11/01 01:56:25;;;;;;;11.85;4.60;;;;;;;15.62;90.53;100722.22;5123238;27;20022;-80
2022/11/01 01:59:04;;;;;;;9.60;5.05;;;;;;;15.64;90.33;100716.72;5113068;28;20027;-81
2022/11/01 02:01:30;;;;;;;14.52;4.95;;;;;;;15.65;90.14;100718.38;5131300;28;20020;-80
2022/11/01 02:03:55;;;;;;;12.95;4.63;;;;;;;15.68;90.38;100723.44;5100453;28;20047;-81
2022/11/01 02:06:22;;;;;;;12.25;5.22;;;;;;;15.70;90.13;100716.09;5128609;28;20015;-80
2022/11/01 02:09:00;;;;;;;7.45;4.50;;;;;;;15.73;90.01;100718.47;5117061;28;20055;-80
2022/11/01 02:11:25;;;;;;;12.88;4.63;;;;;;;15.70;89.83;100722.31;5136522;28;20031;-80
2022/11/01 02:13:51;;;;;;;10.95;4.53;;;;;;;15.70;90.26;100726.78;5117665;28;20012;-81
2022/11/01 02:16:34;;;;;;;8.82;4.72;;;;;;;15.67;90.77;100722.59;5135088;28;20031;-80
2022/11/01 02:19:33;;;;;;;12.98;5.03;;;;;;;15.66;90.23;100722.75;5135221;27;20035;-80
2022/11/01 02:22:15;;;;;;;11.90;4.43;;;;;;;15.68;90.09;100721.59;5139494;27;20035;-81
2022/11/01 02:25:11;;;;;;;10.07;4.65;;;;;;;15.71;89.84;100723.13;5134377;28;20095;-80
2022/11/01 02:27:55;;;;;;;10.32;4.65;;;;;;;15.71;89.90;100718.63;5121869;28;20045;-80
2022/11/01 02:30:23;;;;;;;10.75;4.78;;;;;;;15.68;89.98;100729.63;5106204;28;20045;-81
2022/11/01 02:32:55;;;;;;;9.18;4.88;;;;;;;15.67;89.85;100722.59;5136510;27;20034;-81
2022/11/01 02:35:23;;;;;;;12.05;4.72;;;;;;;15.66;89.78;100726.28;5135535;28;20035;-82
2022/11/01 02:38:00;;;;;;;11.05;4.57;;;;;;;15.65;89.58;100734.44;5134734;28;20019;-81
2022/11/01 02:40:38;;;;;;;9.55;4.25;;;;;;;15.63;89.40;100723.06;5136342;28;20035;-80
2022/11/01 02:43:13;;;;;;;9.32;4.47;;;;;;;15.62;89.27;100740.97;5113814;27;20528;-80
2022/11/01 02:45:45;;;;;;;9.90;4.38;;;;;;;15.60;89.64;100736.75;5137581;27;20110;-81
2022/11/01 02:48:10;;;;;;;10.63;4.25;;;;;;;15.60;89.71;100748.28;5145860;27;20091;-81
2022/11/01 02:50:42;;;;;;;9.15;4.57;;;;;;;15.58;89.76;100744.09;5138366;27;20060;-81
2022/11/01 02:53:11;;;;;;;15.27;4.63;;;;;;;15.50;90.03;100737.69;5149383;27;20019;-81
2022/11/01 02:55:37;;;;;;;15.38;5.05;;;;;;;15.51;89.88;100735.84;5155300;27;20023;-82
2022/11/01 02:58:05;;;;;;;6.53;4.18;;;;;;;15.49;90.21;100744.03;5133754;28;20080;-80
2022/11/01 03:00:34;;;;;;;7.18;4.22;;;;;;;15.47;90.22;100747.81;5137484;27;20094;-81
2022/11/01 03:03:17;;;;;;;12.02;5.30;;;;;;;15.49;90.27;100764.59;5153781;27;20050;-81
2022/11/01 03:06:01;;;;;;;16.88;4.60;;;;;;;15.44;90.53;100762.38;5153825;27;20059;-81
2022/11/01 03:08:50;;;;;;;12.38;5.13;;;;;;;15.44;90.67;100767.72;5140633;27;20035;-81
2022/11/01 03:11:21;;;;;;;7.60;3.95;;;;;;;15.41;90.87;100769.88;5142385;27;20036;-80
2022/11/01 03:13:59;;;;;;;8.90;4.10;;;;;;;15.40;90.79;100776.19;5149322;27;20036;-81
2022/11/01 03:16:28;;;;;;;11.90;4.17;;;;;;;15.41;90.59;100778.72;5135252;27;20043;-81
2022/11/01 03:19:03;;;;;;;10.05;4.18;;;;;;;15.43;90.22;100776.72;5143243;27;20280;-80
2022/11/01 03:21:36;;;;;;;8.73;3.40;;;;;;;15.43;87.54;100790.13;5151326;27;20048;-80
2022/11/01 03:24:25;;;;;;;14.63;3.83;;;;;;;15.43;86.57;100791.97;5144143;27;20419;-80
2022/11/01 03:26:59;;;;;;;;;;;;;;;15.53;86.82;100798.09;5142050;27;20027;-80
2022/11/01 03:29:27;;;;;;;11.05;3.25;;;;;;;15.39;84.19;100788.75;5147675;27;19987;-80
2022/11/01 03:31:53;;;;;;;7.75;2.90;;;;;;;15.41;82.48;100801.97;5143300;28;20382;-80
2022/11/01 03:34:20;;;;;;;4.72;2.35;;;;;;;15.37;81.94;100812.16;5145348;27;20504;-80
2022/11/01 03:36:50;;;;;;;7.28;2.45;;;;;;;15.33;81.63;100811.59;5150462;27;20033;-80
2022/11/01 03:39:21;;;;;;;5.57;2.40;;;;;;;15.28;81.41;100821.06;5136172;27;20027;-79
2022/11/01 03:41:50;;;;;;;5.90;2.42;;;;;;;15.22;81.58;100830.53;5142084;28;20023;-80
2022/11/01 03:44:17;;;;;;;6.05;2.45;;;;;;;15.19;79.47;100828.16;5148831;28;20027;-81
2022/11/01 03:46:42;;;;;;;4.45;1.70;;;;;;;15.15;75.77;100824.94;5142107;28;20020;-80
2022/11/01 03:49:08;;;;;;;5.10;1.80;;;;;;;15.14;74.78;100841.13;5125579;28;20039;-81
2022/11/01 03:51:33;;;;;;;7.25;1.60;;;;;;;15.09;73.07;100838.88;5136173;28;20079;-80
2022/11/01 03:53:58;;;;;;;4.95;1.60;;;;;;;15.05;74.12;100860.72;5149055;27;20382;-80
2022/11/01 03:56:24;;;;;;;3.53;1.40;;;;;;;15.01;71.15;100860.19;5140057;28;20042;-80
2022/11/01 03:58:49;;;;;;;4.28;1.52;;;;;;;14.96;71.31;100862.44;5162638;27;20027;-81
2022/11/01 04:01:16;;;;;;;3.25;1.20;;;;;;;14.91;71.10;100873.56;5147986;28;20049;-80
2022/11/01 04:03:42;;;;;;;3.40;1.08;;;;;;;14.84;70.81;100872.47;5148150;28;20024;-80
2022/11/01 04:06:07;;;;;;;4.15;1.40;;;;;;;14.78;70.38;100878.41;5144097;28;20032;-80
2022/11/01 04:08:33;;;;;;;5.05;1.30;;;;;;;14.75;69.67;100892.06;5147270;28;20026;-80
2022/11/01 04:10:59;;;;;;;3.20;1.25;;;;;;;14.71;68.94;100901.34;5131448;27;20083;-80
2022/11/01 04:13:25;;;;;;;4.00;1.35;;;;;;;14.64;68.69;100909.09;5147701;27;20023;-80
2022/11/01 04:20:31;;;;;;;2.40;1.63;;;;;;;14.53;69.27;100926.09;5153871;27;20034;-80
2022/11/01 04:21:39;;;;;;;6.30;1.65;;;;;;;14.42;69.85;100919.06;5145180;27;20413;-80
2022/11/01 04:24:05;;;;;;;2.67;1.27;;;;;;;14.39;70.50;100924.69;5140125;27;20142;-80
2022/11/01 04:26:30;;;;;;;4.03;1.20;;;;;;;14.33;70.73;100932.44;5116847;27;20489;-80
2022/11/01 04:28:55;;;;;;;4.60;1.00;;;;;;;14.25;70.80;100935.78;5156108;27;20031;-80
2022/11/01 04:31:34;;;;;;;3.47;1.00;;;;;;;14.22;71.04;100950.28;5170223;27;20287;-81
2022/11/01 04:34:01;;;;;;;2.28;0.98;;;;;;;14.18;70.51;100950.69;5153983;27;20038;-81
2022/11/01 04:36:26;;;;;;;4.45;1.20;;;;;;;14.08;70.78;100953.34;5152046;27;20031;-79
2022/11/01 04:38:57;;;;;;;3.30;0.95;;;;;;;14.04;70.47;100967.97;5146149;27;20042;-80
2022/11/01 04:41:27;;;;;;;3.22;1.00;;;;;;;14.01;70.71;100978.91;5146211;27;20446;-80
2022/11/01 04:43:54;;;;;;;7.72;1.30;;;;;;;13.94;70.73;100962.59;5133921;27;20027;-81
2022/11/01 04:46:20;;;;;;;2.78;1.08;;;;;;;13.93;70.34;100987.59;5130263;28;20088;-80
2022/11/01 04:48:45;;;;;;;2.83;0.88;;;;;;;13.88;70.39;100979.16;5132396;28;20527;-81
2022/11/01 04:51:11;;;;;;;2.42;1.02;;;;;;;13.82;70.30;100987.69;5147272;27;20024;-80
2022/11/01 04:53:36;;;;;;;2.08;1.40;;;;;;;13.84;70.66;101010.63;5145332;27;20049;-80
2022/11/01 04:56:04;;;;;;;3.33;0.90;;;;;;;13.80;70.54;101013.69;5146043;27;20038;-80
2022/11/01 04:58:29;;;;;;;3.45;0.98;;;;;;;13.75;70.78;101018.59;5146326;27;20038;-80
2022/11/01 05:00:55;;;;;;;5.80;1.30;;;;;;;13.69;70.16;101003.97;5154721;27;20020;-80
2022/11/01 05:03:21;;;;;;;6.82;1.40;;;;;;;13.66;69.66;101033.59;5147635;27;20035;-81
2022/11/01 05:05:46;;;;;;;8.85;1.42;;;;;;;13.64;69.76;101039.06;5137856;27;20063;-79
2022/11/01 05:08:12;;;;;;;3.30;0.98;;;;;;;13.61;69.55;101041.16;5136788;27;20099;-80
2022/11/01 05:10:40;;;;;;;2.30;0.73;;;;;;;13.54;69.77;101038.16;5153616;27;20082;-80
2022/11/01 05:13:05;;;;;;;4.85;1.00;;;;;;;13.53;69.71;101041.81;5152645;27;20023;-80
2022/11/01 05:15:31;;;;;;;6.60;1.40;;;;;;;13.47;69.82;101042.31;5152661;27;20019;-80
2022/11/01 05:17:56;;;;;;;4.30;1.23;;;;;;;13.46;69.92;101049.47;5150494;27;20242;-79
2022/11/01 05:20:22;;;;;;;2.97;1.33;;;;;;;13.40;70.00;101052.66;5133223;27;20019;-80
2022/11/01 05:22:48;;;;;;;4.10;1.10;;;;;;;13.38;69.95;101057.28;5120911;27;20023;-80
2022/11/01 05:25:13;;;;;;;3.63;1.20;;;;;;;13.32;70.53;101061.34;5149575;27;20081;-80
2022/11/01 05:27:38;;;;;;;5.93;1.35;;;;;;;13.29;70.87;101071.41;5151618;27;20031;-80
2022/11/01 05:30:05;;;;;;;2.67;0.90;;;;;;;13.22;71.28;101068.41;5146148;27;20079;-80
2022/11/01 05:32:31;;;;;;;4.13;1.08;;;;;;;13.22;71.57;101070.22;5139883;27;20023;-80
2022/11/01 05:34:56;;;;;;;2.88;1.23;;;;;;;13.14;71.18;101066.38;5148892;27;20031;-80
2022/11/01 05:37:21;;;;;;;5.13;1.45;;;;;;;13.11;71.62;101061.28;5139289;27;20109;-80
2022/11/01 05:39:47;;;;;;;4.80;1.33;;;;;;;13.11;72.10;101071.13;5143814;27;20027;-80
2022/11/01 05:42:12;;;;;;;5.28;1.40;;;;;;;13.06;72.26;101071.50;5129759;28;20477;-79
2022/11/01 05:44:37;;;;;;;4.68;1.33;;;;;;;13.02;72.81;101075.38;5145603;27;20024;-80
2022/11/01 05:47:03;;;;;;;5.35;0.98;;;;;;;12.98;72.86;101081.94;5129663;28;20015;-80
2022/11/01 05:49:29;;;;;;;5.78;1.10;;;;;;;12.98;72.22;101081.13;5143281;27;20054;-80
2022/11/01 05:51:54;;;;;;;6.32;1.33;;;;;;;12.95;72.04;101090.19;5139298;27;20024;-80
2022/11/01 05:54:20;;;;;;;15.43;1.73;;;;;;;12.93;69.98;101102.81;5144830;27;20078;-80
2022/11/01 05:56:45;;;;;;;3.95;1.30;;;;;;;12.90;69.49;101101.25;5146327;27;20430;-80
2022/11/01 05:59:10;;;;;;;6.22;1.60;;;;;;;12.87;68.58;101104.19;5137717;27;20477;-80
2022/11/01 06:01:35;;;;;;;8.88;1.67;;;;;;;12.82;68.82;101095.69;5135427;27;20016;-80
2022/11/01 06:04:01;;;;;;;11.82;2.00;;;;;;;12.80;68.05;101100.31;5141216;27;20034;-80
2022/11/01 06:06:28;;;;;;;7.05;1.88;;;;;;;12.73;68.24;101102.63;5146154;27;20072;-80
2022/11/01 06:08:55;;;;;;;8.65;2.20;;;;;;;12.69;67.96;101098.53;5146860;27;20028;-80
2022/11/01 06:11:20;;;;;;;6.97;1.67;;;;;;;12.68;67.69;101106.66;5148995;27;20023;-80
2022/11/01 06:13:45;;;;;;;5.43;1.55;;;;;;;12.68;67.95;101115.50;5113013;27;20188;-80
2022/11/01 06:16:11;;;;;;;4.80;1.60;;;;;;;12.64;68.63;101130.03;5127032;27;20496;-80
2022/11/01 06:18:36;;;;;;;6.50;1.60;;;;;;;12.61;69.18;101140.94;5131642;27;20028;-80
2022/11/01 06:21:01;;;;;;;8.02;1.63;;;;;;;12.56;69.68;101135.16;5134640;27;20024;-80
2022/11/01 06:23:26;;;;;;;6.85;1.50;;;;;;;12.57;69.75;101142.16;5126605;27;20016;-80
2022/11/01 06:26:02;;;;;;;6.17;1.73;;;;;;;12.54;70.70;101143.25;5139837;27;20112;-80
2022/11/01 06:28:27;;;;;;;5.60;1.42;;;;;;;12.49;70.99;101145.44;5135812;27;20268;-80
2022/11/01 06:30:52;;;;;;;4.10;1.52;;;;;;;12.44;71.40;101136.09;5136642;27;20401;-80
2022/11/01 06:33:18;;;;;;;7.63;1.52;;;;;;;12.44;71.64;101138.78;5119364;27;20109;-82
2022/11/01 06:35:43;;;;;;;4.38;1.42;;;;;;;12.45;71.65;101161.78;5144865;27;20023;-81
2022/11/01 06:38:08;;;;;;;5.55;1.65;;;;;;;12.42;71.91;101162.88;5144091;27;20042;-81
2022/11/01 06:40:35;;;;;;;9.63;1.83;;;;;;;12.40;72.20;101163.00;5128230;27;20046;-82
2022/11/01 06:43:02;;;;;;;5.30;1.42;;;;;;;12.39;71.95;101171.97;5145420;27;20043;-80
2022/11/01 06:45:29;;;;;;;4.45;1.40;;;;;;;12.37;72.41;101179.25;5149128;27;20027;-80
2022/11/01 06:47:54;;;;;;;6.03;1.38;;;;;;;12.35;72.88;101175.81;5136664;27;20038;-79
2022/11/01 06:50:21;;;;;;;5.50;1.40;;;;;;;12.36;72.76;101182.03;5138952;27;20050;-81
2022/11/01 06:52:46;;;;;;;5.45;1.27;;;;;;;12.32;72.50;101180.56;5137360;27;20035;-80
2022/11/01 06:55:11;;;;;;;9.30;1.65;;;;;;;12.31;72.77;101185.03;5135358;27;20062;-80
2022/11/01 06:57:37;;;;;;;6.30;1.88;;;;;;;12.29;72.56;101194.09;5152314;27;20125;-79
2022/11/01 07:00:03;;;;;;;7.78;1.80;;;;;;;12.26;72.75;101202.31;5139822;27;20034;-80
2022/11/01 07:02:28;;;;;;;7.85;2.10;;;;;;;12.24;72.66;101186.50;5144775;27;20392;-79
2022/11/01 07:04:54;;;;;;;19.20;2.30;;;;;;;12.23;72.55;101199.94;5113652;27;20019;-80
2022/11/01 07:07:19;;;;;;;12.05;1.90;;;;;;;12.19;73.32;101205.50;5119803;27;20073;-79
2022/11/01 07:09:45;;;;;;;7.20;1.70;;;;;;;12.17;73.37;101209.22;5138799;27;20015;-79
2022/11/01 07:12:10;;;;;;;9.63;2.03;;;;;;;12.17;73.49;101214.56;5137153;27;20122;-80
2022/11/01 07:14:35;;;;;;;7.15;1.90;;;;;;;12.17;73.58;101227.88;5137493;27;20047;-79
2022/11/01 07:17:00;;;;;;;6.20;1.83;;;;;;;12.13;73.64;101223.75;5140035;27;20066;-80
2022/11/01 07:19:26;;;;;;;9.02;2.13;;;;;;;12.13;73.40;101224.59;5156562;27;20050;-79
2022/11/01 07:21:52;;;;;;;8.27;1.70;;;;;;;12.11;73.66;101225.69;5147437;27;20038;-79
2022/11/01 07:24:18;;;;;;;10.93;1.98;;;;;;;12.10;73.58;101237.31;5141841;27;20043;-79
2022/11/01 07:26:44;;;;;;;11.48;1.90;;;;;;;12.11;73.61;101247.00;5134249;27;20033;-80
2022/11/01 07:29:09;;;;;;;8.68;1.80;;;;;;;12.08;73.06;101247.22;5143206;27;20043;-80
2022/11/01 07:31:37;;;;;;;9.43;2.10;;;;;;;12.07;72.92;101256.16;5121958;28;20057;-80
2022/11/01 07:34:03;;;;;;;8.60;1.95;;;;;;;12.06;73.20;101260.66;5132299;27;20050;-80
2022/11/01 07:36:28;;;;;;;8.95;1.88;;;;;;;12.09;73.06;101267.53;5146735;27;20047;-81
2022/11/01 07:38:53;;;;;;;13.65;2.45;;;;;;;12.07;73.24;101266.81;5137663;27;20062;-80
2022/11/01 07:41:19;;;;;;;12.73;2.40;;;;;;;12.06;73.30;101265.97;5130324;27;20041;-80
2022/11/01 07:43:44;;;;;;;15.75;2.67;;;;;;;12.09;72.43;101259.56;5130151;28;20110;-81
2022/11/01 07:46:09;;;;;;;10.10;2.10;;;;;;;12.13;72.69;101277.00;5121685;28;20042;-80
2022/11/01 07:48:35;;;;;;;8.85;2.42;;;;;;;12.15;72.42;101278.56;5144924;27;20300;-82
2022/11/01 07:51:03;;;;;;;12.95;2.13;;;;;;;12.14;72.22;101268.91;5129130;27;20079;-80
2022/11/01 07:53:29;;;;;;;16.13;2.22;;;;;;;12.16;71.80;101274.97;5146394;27;20091;-81
2022/11/01 07:55:54;;;;;;;9.38;1.90;;;;;;;12.17;72.30;101279.34;5121100;28;20023;-81
2022/11/01 07:58:22;;;;;;;15.32;2.42;;;;;;;12.21;71.56;101285.28;5122805;28;20146;-81
2022/11/01 08:00:49;;;;;;;12.07;2.40;;;;;;;12.26;71.19;101296.41;5143826;27;20027;-80
2022/11/01 08:03:16;;;;;;;13.27;3.03;;;;;;;12.27;70.99;101290.09;5139058;27;20031;-79
2022/11/01 08:05:48;;;;;;;12.10;2.45;;;;;;;12.35;71.18;101294.84;5141848;28;20094;-80
2022/11/01 08:08:14;;;;;;;14.20;2.42;;;;;;;12.37;71.47;101299.09;5135535;27;20058;-80
2022/11/01 08:10:43;;;;;;;13.57;2.60;;;;;;;12.43;70.65;101288.94;5143761;27;20062;-81
2022/11/01 08:13:20;;;;;;;14.05;3.00;;;;;;;12.42;70.61;101300.56;5144800;27;20102;-80
2022/11/01 08:15:47;;;;;;;18.75;2.67;;;;;;;12.50;70.45;101316.78;5125318;28;20095;-80
2022/11/01 08:18:16;;;;;;;12.35;2.17;;;;;;;12.54;69.63;101307.59;5116587;28;20026;-80
2022/11/01 08:20:42;;;;;;;17.30;2.70;;;;;;;12.54;69.77;101308.47;5139593;27;20014;-80
2022/11/01 08:23:10;;;;;;;20.23;3.20;;;;;;;12.59;69.57;101308.09;5139316;27;20011;-79
2022/11/01 08:25:36;;;;;;;19.58;3.30;;;;;;;12.62;69.40;101315.84;5128078;28;20020;-79
2022/11/01 08:28:03;;;;;;;12.32;2.40;;;;;;;12.62;69.27;101325.66;5144620;28;20548;-78
2022/11/01 08:30:33;;;;;;;14.63;2.92;;;;;;;12.62;69.59;101323.00;5146506;27;20019;-79
2022/11/01 08:33:02;;;;;;;18.60;2.50;;;;;;;12.67;68.99;101332.31;5135122;28;20027;-79
2022/11/01 08:35:28;;;;;;;17.83;2.60;;;;;;;12.63;68.96;101325.53;5137187;28;20027;-79
2022/11/01 08:37:54;;;;;;;10.85;2.55;;;;;;;12.67;68.20;101334.13;5136164;28;20034;-79
2022/11/01 08:40:22;;;;;;;14.73;3.00;;;;;;;12.70;69.19;101337.41;5117356;28;20023;-80
2022/11/01 08:42:48;;;;;;;13.15;3.10;;;;;;;12.72;69.49;101335.50;5136987;28;20088;-78
2022/11/01 08:45:14;;;;;;;15.43;2.67;;;;;;;12.78;68.30;101337.66;5136757;28;20027;-79
2022/11/01 08:47:40;;;;;;;21.80;3.17;;;;;;;12.83;68.71;101336.47;5142396;28;20027;-81
2022/11/01 08:50:10;;;;;;;22.65;2.60;;;;;;;12.87;68.80;101332.59;5121524;28;20110;-79
2022/11/01 08:52:36;;;;;;;17.15;2.47;;;;;;;12.93;68.50;101337.44;5130379;28;20051;-79
2022/11/01 08:55:02;;;;;;;13.90;2.38;;;;;;;12.99;68.17;101342.28;5148978;27;20028;-79
2022/11/01 08:57:29;;;;;;;19.70;3.25;;;;;;;13.06;67.44;101346.16;5121425;28;20172;-79
2022/11/01 08:59:55;;;;;;;16.85;2.60;;;;;;;13.17;67.52;101347.13;5144243;27;20031;-81
2022/11/01 09:02:20;;;;;;;17.23;2.58;;;;;;;13.27;68.30;101350.75;5150074;27;20101;-81
2022/11/01 09:04:45;;;;;;;15.25;3.03;;;;;;;13.37;67.61;101348.22;5149883;27;20512;-80
2022/11/01 09:07:11;;;;;;;10.85;2.67;;;;;;;13.46;67.58;101351.00;5146509;27;20114;-81
2022/11/01 09:09:39;;;;;;;14.27;2.38;;;;;;;13.55;67.07;101356.56;5151953;27;20031;-79
2022/11/01 09:12:05;;;;;;;21.58;3.22;;;;;;;13.68;66.79;101352.78;5144009;27;20023;-80
2022/11/01 09:14:30;;;;;;;23.50;3.35;;;;;;;13.73;65.71;101349.72;5146077;27;20038;-80
2022/11/01 09:16:55;;;;;;;15.98;2.75;;;;;;;13.78;65.87;101360.88;5114470;28;20047;-81
2022/11/01 09:19:23;;;;;;;15.80;2.50;;;;;;;13.90;65.86;101366.19;5134636;27;20031;-81
2022/11/01 09:21:48;;;;;;;17.10;2.97;;;;;;;13.95;65.03;101372.84;5127957;27;20322;-80
2022/11/01 09:24:15;;;;;;;22.83;2.70;;;;;;;14.05;65.62;101368.47;5143406;27;20047;-81
2022/11/01 09:26:44;;;;;;;16.02;2.85;;;;;;;14.15;64.74;101368.50;5146935;27;20034;-81
2022/11/01 09:29:10;;;;;;;16.50;3.15;;;;;;;14.20;64.86;101362.78;5130751;27;20028;-81
2022/11/01 09:31:36;;;;;;;19.98;3.03;;;;;;;14.31;64.63;101376.09;5133297;27;20027;-81
2022/11/01 09:34:02;;;;;;;15.73;2.63;;;;;;;14.35;63.83;101379.38;5147171;27;20028;-81
2022/11/01 09:36:28;;;;;;;18.67;3.17;;;;;;;14.34;63.86;101386.53;5149819;27;20035;-80
2022/11/01 09:38:55;;;;;;;16.10;2.42;;;;;;;14.44;64.58;101392.81;5127818;27;20102;-80
2022/11/01 09:41:30;;;;;;;16.27;2.60;;;;;;;14.52;64.45;101386.81;5151816;27;20050;-81
2022/11/01 09:43:58;;;;;;;21.80;3.17;;;;;;;14.60;63.97;101395.06;5147277;27;20035;-81
2022/11/01 09:46:30;;;;;;;19.85;2.80;;;;;;;14.71;63.99;101404.00;5148784;27;20027;-81
2022/11/01 09:48:57;;;;;;;15.50;2.80;;;;;;;14.77;62.99;101408.81;5141779;27;20043;-81
2022/11/01 09:51:24;;;;;;;16.85;2.58;;;;;;;14.84;62.28;101414.47;5149296;27;20027;-80
2022/11/01 09:53:52;;;;;;;20.35;2.88;;;;;;;14.94;64.16;101402.03;5161889;27;20019;-80
2022/11/01 09:56:31;;;;;;;15.37;3.07;;;;;;;15.05;63.47;101414.47;5141397;27;20035;-80
2022/11/01 09:59:36;;;;;;;13.57;3.33;;;;;;;15.15;63.37;101416.22;5137005;27;20688;-79
2022/11/01 10:02:29;;;;;;;16.83;2.63;;;;;;;15.32;63.93;101427.25;5122232;27;20281;-79
2022/11/01 10:05:19;;;;;;;14.95;2.60;;;;;;;15.43;62.75;101423.66;5124830;28;20034;-79
2022/11/01 10:08:10;;;;;;;19.70;2.88;;;;;;;15.50;62.94;101425.66;5144157;27;20028;-79
2022/11/01 10:10:59;;;;;;;14.98;3.13;;;;;;;15.54;61.82;101435.09;5136118;27;20030;-80
2022/11/01 10:13:44;;;;;;;17.48;3.08;;;;;;;15.68;62.71;101446.41;5115421;27;20050;-80
2022/11/01 10:16:31;;;;;;;17.13;2.55;;;;;;;15.73;60.92;101444.19;5113314;27;20035;-80
2022/11/01 10:19:02;;;;;;;16.85;2.97;;;;;;;15.77;60.61;101451.00;5141220;27;20019;-80
2022/11/01 10:21:33;;;;;;;16.45;3.05;;;;;;;15.71;60.24;101457.69;5140921;27;20027;-80
2022/11/01 10:24:02;;;;;;;14.82;2.92;;;;;;;15.73;60.82;101452.22;5136714;27;20032;-80
2022/11/01 10:26:29;;;;;;;20.02;3.25;;;;;;;15.80;60.38;101444.50;5147985;27;20588;-80
2022/11/01 10:29:03;;;;;;;16.08;3.33;;;;;;;15.86;61.19;101449.34;5134369;27;20069;-81
2022/11/01 10:31:28;;;;;;;12.30;2.30;;;;;;;15.91;60.30;101447.91;5147168;27;20024;-80
2022/11/01 10:33:59;;;;;;;13.07;2.50;;;;;;;15.99;60.18;101454.44;5132685;27;20027;-80
2022/11/01 10:36:29;;;;;;;11.50;2.75;;;;;;;16.04;60.17;101452.19;5142138;27;20024;-80
2022/11/01 10:39:15;;;;;;;11.75;2.80;;;;;;;16.14;60.40;101454.88;5156982;27;20082;-81
2022/11/01 10:41:46;;;;;;;16.75;3.03;;;;;;;16.19;60.18;101456.16;5153261;27;20030;-81
2022/11/01 10:44:37;;;;;;;14.85;2.92;;;;;;;16.26;60.14;101456.44;5149966;27;20038;-81
2022/11/01 10:47:05;;;;;;;14.98;2.70;;;;;;;16.24;58.73;101442.34;5139991;27;20087;-80
2022/11/01 10:49:35;;;;;;;16.95;2.83;;;;;;;16.38;58.91;101449.94;5148385;27;20063;-79
2022/11/01 10:52:06;;;;;;;14.57;2.90;;;;;;;16.35;58.16;101442.19;5142926;27;20099;-79
2022/11/01 10:54:36;;;;;;;12.98;2.67;;;;;;;16.46;58.81;101455.44;5142858;27;20101;-80
2022/11/01 10:57:08;;;;;;;14.38;2.33;;;;;;;16.57;58.56;101453.63;5150440;27;20023;-79
2022/11/01 10:59:43;;;;;;;14.93;2.78;;;;;;;16.67;58.49;101442.88;5153170;27;20023;-80
2022/11/01 11:02:22;;;;;;;13.60;2.67;;;;;;;16.71;58.57;101449.66;5151771;27;20041;-81
2022/11/01 11:04:48;;;;;;;11.02;2.30;;;;;;;16.80;57.76;101438.94;5157706;27;20027;-80
2022/11/01 11:07:15;;;;;;;9.63;2.40;;;;;;;16.75;56.53;101448.38;5150544;27;20053;-81
2022/11/01 11:09:41;;;;;;;8.45;2.15;;;;;;;16.81;57.41;101445.13;5147570;27;20020;-81
2022/11/01 11:12:14;;;;;;;17.80;3.05;;;;;;;16.78;56.60;101445.41;5138067;27;20496;-80
2022/11/01 11:14:42;;;;;;;11.13;2.83;;;;;;;16.87;58.36;101439.22;5134044;27;20047;-81
2022/11/01 11:17:19;;;;;;;13.77;3.15;;;;;;;16.97;58.52;101441.88;5148801;27;20486;-81
2022/11/01 11:19:45;;;;;;;16.35;3.47;;;;;;;17.09;57.72;101445.25;5145774;27;20026;-81
2022/11/01 11:22:12;;;;;;;13.20;2.47;;;;;;;17.19;57.89;101438.84;5138303;27;20024;-81
2022/11/01 11:24:40;;;;;;;12.50;2.80;;;;;;;17.19;56.65;101438.84;5131650;27;20024;-81
2022/11/01 11:27:22;;;;;;;8.15;2.28;;;;;;;17.22;57.33;101437.72;5137882;27;20102;-81
2022/11/01 11:29:52;;;;;;;11.85;2.60;;;;;;;17.16;55.41;101433.78;5134036;27;20016;-82
2022/11/01 11:32:21;;;;;;;16.17;3.00;;;;;;;17.15;55.72;101448.22;5129792;27;20027;-81
2022/11/01 11:35:13;;;;;;;13.68;2.50;;;;;;;17.14;57.53;101449.19;5140727;27;20023;-81